Terminal Aerodrome Forecast
Issued by NWS

Home | Current Version | Previous Version | Text Only | Print | Product List | Glossary On
Versions: 1 2 3 4 5 6 7 8 9 10 11 12 13 14 15 16 17
000
FTUS43 KLSX 191700
TAFCPS
TAF
KCPS 191734Z 1918/2018 14007KT P6SM FEW040
     FM200600 18004KT P6SM SCT250
     FM201000 VRB03KT 3SM BR SCT250
     FM201300 22008KT P6SM SCT040=

USA.gov is the U.S. government's official web portal to all federal, state and local government web resources and services.